Overview Statistics Trail Chart Weather Telemetry Raw packets
 

This is the latest recevied packets stored in our database for station/object IZ5YYF-12. If no packets are shown the sender has not sent any packets the latest 24 hours.

If you compare the raw packets with similar data from other websites it may differ (especially the path), the reason is that we are not collecting packets from the same APRS-IS servers. Each APRS-IS server performes duplicate filtering, and which packet that is considered to be a duplicate may differ depending on which APRS-IS server you receive your data from.

<< 1 2 3 4 >>

1788566581: IZ5YYF-12>APRSMC,TCPIP*,qAR,IU5DKW-15:T#332,976.5,31.3,33.1,1022.7,0.0,00000000

1788566581: IZ5YYF-12>APRSMC,TCPIP*,qAR,IU5DKW-15:!4318.86N/01119.72E#IZ5YYF-12#IZ5YYF-12MAIKOL/B=100/A=001348

1788566483: IZ5YYF-12>APRSMC,TCPIP*,qAR,IW5BLC-91:T#213,976.5,31.3,33.1,1022.7,0.0,00000000

1788566483: IZ5YYF-12>APRSMC,TCPIP*,qAR,IW5BLC-91:!4318.86N/01119.72E#IZ5YYF-12#IZ5YYF-12MAIKOL/B=100/A=001348

1788564673: IZ5YYF-12>APRSMC,TCPIP*,qAR,IQ5ARI-15::IZ5YYF-12:PARM.Press,Temp.in,Hum,QNH,Temp.out,track,-,-,-,-,-,-,-

1788564673: IZ5YYF-12>APRSMC,TCPIP*,qAR,IQ5ARI-15:T#331,976.6,31.5,32.3,1022.7,0.0,00000000

1788564673: IZ5YYF-12>APRSMC,TCPIP*,qAR,IQ5ARI-15::IZ5YYF-12:UNIT.hPa,C deg,%,hPa,C deg,Y/N,O/N,O/N,O/N,O/N,O/N,O/N,O/N

1788564673: IZ5YYF-12>APRSMC,TCPIP*,qAR,IQ5ARI-15::IZ5YYF-12:EQNS.0,1,0,0,1,0,0,1,0,0,1,0,0,1,0

1788564673: IZ5YYF-12>APRSMC,TCPIP*,qAR,IQ5ARI-15:!4318.86N/01119.72E#IZ5YYF-12#IZ5YYF-12MAIKOL/B=100/A=001348

1788562856: IZ5YYF-12>APRSMC,TCPIP*,qAR,IW5BLC-91::IZ5YYF-12:PARM.Press,Temp.in,Hum,QNH,Temp.out,track,-,-,-,-,-,-,-

1788562856: IZ5YYF-12>APRSMC,TCPIP*,qAR,IW5BLC-91::IZ5YYF-12:UNIT.hPa,C deg,%,hPa,C deg,Y/N,O/N,O/N,O/N,O/N,O/N,O/N,O/N

1788562856: IZ5YYF-12>APRSMC,TCPIP*,qAR,IW5BLC-91::IZ5YYF-12:EQNS.0,1,0,0,1,0,0,1,0,0,1,0,0,1,0

1788562856: IZ5YYF-12>APRSMC,TCPIP*,qAR,IW5BLC-91:T#211,976.8,31.8,30.6,1022.8,0.0,00000000

1788562856: IZ5YYF-12>APRSMC,TCPIP*,qAR,IW5BLC-91:!4318.86N/01119.72E#IZ5YYF-12#IZ5YYF-12MAIKOL/B=100/A=001348

1788559267: IZ5YYF-12>APRSMC,TCPIP*,qAR,IW5AKT-10:T#330,976.8,32.5,27.1,1022.8,0.0,00000000

1788559267: IZ5YYF-12>APRSMC,TCPIP*,qAR,IW5AKT-10:!4318.86N/01119.72E#IZ5YYF-12#IZ5YYF-12MAIKOL/B=100/A=001348

1788559223: IZ5YYF-12>APRSMC,TCPIP*,qAR,IW5BLC-91:T#209,976.8,32.5,27.1,1022.8,0.0,00000000

1788559223: IZ5YYF-12>APRSMC,TCPIP*,qAR,IW5BLC-91:!4318.86N/01119.72E#IZ5YYF-12#IZ5YYF-12MAIKOL/B=100/A=001348

1788557421: IZ5YYF-12>APRSMC,TCPIP*,qAR,IZ5TIY-12:T#329,976.9,32.7,27.6,1022.8,0.0,00000000

1788557403: IZ5YYF-12>APRSMC,TCPIP*,qAR,IW5BLC-91:T#208,976.9,32.7,27.6,1022.8,0.0,00000000

1788557403: IZ5YYF-12>APRSMC,TCPIP*,qAR,IW5BLC-91:!4318.86N/01119.72E#IZ5YYF-12#IZ5YYF-12MAIKOL/B=100/A=001348

1788555623: IZ5YYF-12>APRSMC,TCPIP*,qAR,IW5BLC-91:!4318.86N/01119.72E#IZ5YYF-12#IZ5YYF-12MAIKOL/B=097/A=001348

1788555623: IZ5YYF-12>APRSMC,TCPIP*,qAR,IW5BLC-91:T#207,977.0,33.0,27.6,1022.9,0.0,00000000

1788553804: IZ5YYF-12>APRSMC,TCPIP*,qAR,IZ5CMC-13:T#328,976.9,33.1,27.3,1022.8,0.0,00000000

1788553804: IZ5YYF-12>APRSMC,TCPIP*,qAR,IZ5CMC-13:!4318.86N/01119.72E#IZ5YYF-12#IZ5YYF-12MAIKOL/B=100/A=001348